createdAt,value
2022-09-04T00:02:42.643Z,8.90
2022-09-04T00:05:43.825Z,9.02
2022-09-04T00:08:50.635Z,11.00
2022-09-04T00:11:55.623Z,11.23
2022-09-04T00:17:43.629Z,9.77
2022-09-04T00:20:45.667Z,10.45
2022-09-04T00:23:42.628Z,9.50
2022-09-04T00:26:46.938Z,12.70
2022-09-04T00:29:45.584Z,12.93
2022-09-04T00:32:41.207Z,12.68
2022-09-04T00:35:37.578Z,10.43
2022-09-04T00:38:26.196Z,11.80
2022-09-04T00:41:47.584Z,10.55
2022-09-04T00:44:37.577Z,10.88
2022-09-04T00:47:54.749Z,10.70
2022-09-04T00:51:01.599Z,15.27
2022-09-04T00:54:15.656Z,12.30
2022-09-04T00:57:31.579Z,12.27
2022-09-04T01:00:22.583Z,11.20
2022-09-04T01:03:40.331Z,12.48
2022-09-04T01:06:42.551Z,14.65
2022-09-04T01:09:58.645Z,11.68
2022-09-04T01:12:53.579Z,12.02
2022-09-04T01:15:52.996Z,11.40
2022-09-04T01:19:21.512Z,11.77
2022-09-04T01:22:27.540Z,13.27
2022-09-04T01:25:58.554Z,12.90
2022-09-04T01:29:00.498Z,14.65
2022-09-04T01:32:09.545Z,14.18
2022-09-04T01:35:17.532Z,11.68
2022-09-04T01:38:09.625Z,12.20
2022-09-04T01:41:06.497Z,14.68
2022-09-04T01:43:46.638Z,14.07
2022-09-04T01:46:36.485Z,12.85
2022-09-04T01:49:23.727Z,10.40
2022-09-04T01:52:28.491Z,15.55
2022-09-04T01:55:27.671Z,10.82
2022-09-04T01:58:21.483Z,14.13
2022-09-04T02:01:27.533Z,10.88
2022-09-04T02:04:16.314Z,12.85
2022-09-04T02:07:22.465Z,11.18
2022-09-04T02:10:09.021Z,13.00
2022-09-04T02:13:09.498Z,12.45
2022-09-04T02:16:14.506Z,11.15
2022-09-04T02:19:04.464Z,11.55
2022-09-04T02:21:57.647Z,10.73
2022-09-04T02:24:55.482Z,14.15
2022-09-04T02:28:08.491Z,12.98
2022-09-04T02:31:16.468Z,13.30
2022-09-04T02:34:13.469Z,13.55
2022-09-04T02:36:57.550Z,11.32
2022-09-04T02:39:56.494Z,12.57
2022-09-04T02:42:54.618Z,13.23
2022-09-04T02:46:00.417Z,13.70
2022-09-04T02:48:59.741Z,13.77
2022-09-04T02:52:30.431Z,13.63
2022-09-04T02:55:37.438Z,11.10
2022-09-04T02:58:33.552Z,13.32
2022-09-04T03:01:35.497Z,13.30
2022-09-04T03:04:30.430Z,10.38
2022-09-04T03:25:51.021Z,13.63
2022-09-04T03:28:50.009Z,10.60
2022-09-04T03:31:55.225Z,11.85
2022-09-04T03:34:48.027Z,13.18
2022-09-04T03:38:05.991Z,12.27
2022-09-04T03:41:04.529Z,12.25
2022-09-04T03:44:12.982Z,13.60
2022-09-04T03:47:06.019Z,11.40
2022-09-04T03:50:23.949Z,10.60
2022-09-04T03:53:23.301Z,9.48
2022-09-04T03:56:21.999Z,10.45
2022-09-04T03:59:20.082Z,11.98
2022-09-04T04:02:09.989Z,12.57
2022-09-04T04:05:27.976Z,12.60
2022-09-04T04:08:23.384Z,9.73
2022-09-04T04:11:13.002Z,10.90
2022-09-04T04:14:21.066Z,8.60
2022-09-04T04:17:32.951Z,8.68
2022-09-04T04:20:36.795Z,10.23
2022-09-04T04:23:29.962Z,9.60
2022-09-04T04:26:14.237Z,10.15
2022-09-04T04:29:14.933Z,9.38
2022-09-04T04:32:19.915Z,10.18
2022-09-04T04:35:16.509Z,8.18
2022-09-04T04:38:26.931Z,7.15
2022-09-04T04:41:30.944Z,10.88
2022-09-04T04:44:26.919Z,9.77
2022-09-04T04:47:55.938Z,9.68
2022-09-04T04:51:17.853Z,7.63
2022-09-04T04:54:15.927Z,8.02
2022-09-04T04:57:33.911Z,9.35
2022-09-04T05:00:31.921Z,10.10
2022-09-04T05:03:49.886Z,7.95
2022-09-04T05:07:12.926Z,10.05
2022-09-04T05:10:19.875Z,7.63
2022-09-04T05:13:23.915Z,7.40
2022-09-04T05:16:54.838Z,6.57
2022-09-04T05:19:50.402Z,10.30
2022-09-04T05:22:40.640Z,6.78
2022-09-04T05:25:40.886Z,9.07
2022-09-04T05:28:35.861Z,8.80
2022-09-04T05:31:44.905Z,7.78
2022-09-04T05:35:02.822Z,8.10
2022-09-04T05:38:11.881Z,5.05
2022-09-04T05:41:10.874Z,6.47
2022-09-04T05:44:26.881Z,5.32
2022-09-04T05:47:36.870Z,6.55
2022-09-04T05:50:57.845Z,5.13
2022-09-04T05:54:00.788Z,6.82
2022-09-04T05:56:58.937Z,6.60
2022-09-04T06:00:04.852Z,5.43
2022-09-04T06:02:57.027Z,5.93
2022-09-04T06:06:07.826Z,7.10
2022-09-04T06:09:16.839Z,6.63
2022-09-04T06:12:24.807Z,6.30
2022-09-04T06:15:27.778Z,5.03
2022-09-04T06:18:29.549Z,4.75
2022-09-04T06:21:31.851Z,8.27
2022-09-04T06:24:34.822Z,5.88
2022-09-04T06:27:55.827Z,7.55
2022-09-04T06:31:08.833Z,4.53
2022-09-04T06:34:05.776Z,7.82
2022-09-04T06:37:09.962Z,5.93
2022-09-04T06:40:21.814Z,3.40
2022-09-04T06:43:30.788Z,3.13
2022-09-04T06:46:39.451Z,5.32
2022-09-04T06:49:46.820Z,3.70
2022-09-04T06:52:38.922Z,6.15
2022-09-04T06:55:56.785Z,4.25
2022-09-04T06:59:17.775Z,4.72
2022-09-04T07:02:27.268Z,4.38
2022-09-04T07:05:38.777Z,4.85
2022-09-04T07:08:30.851Z,3.88
2022-09-04T07:11:23.761Z,7.65
2022-09-04T07:14:41.769Z,8.07
2022-09-04T07:17:45.763Z,4.47
2022-09-04T07:20:49.876Z,4.75
2022-09-04T07:24:08.759Z,3.40
2022-09-04T07:27:05.762Z,4.28
2022-09-04T07:30:21.866Z,4.20
2022-09-04T07:33:23.738Z,3.75
2022-09-04T07:36:11.853Z,3.78
2022-09-04T07:39:06.753Z,4.07
2022-09-04T07:41:55.943Z,5.18
2022-09-04T07:44:58.746Z,3.20
2022-09-04T07:48:02.701Z,5.47
2022-09-04T07:51:14.948Z,7.13
2022-09-04T07:54:22.920Z,4.32
2022-09-04T07:57:21.285Z,3.63
2022-09-04T08:00:27.720Z,6.20
2022-09-04T08:03:53.737Z,3.83
2022-09-04T08:06:49.695Z,3.80
2022-09-04T08:09:50.371Z,6.22
2022-09-04T08:12:58.670Z,3.53
2022-09-04T08:15:50.082Z,3.80
2022-09-04T08:18:59.730Z,5.15
2022-09-04T08:21:49.692Z,5.70
2022-09-04T08:24:45.817Z,5.43
2022-09-04T08:27:36.712Z,6.10
2022-09-04T08:30:35.731Z,6.30
2022-09-04T08:33:49.158Z,3.80
2022-09-04T08:36:53.666Z,4.07
2022-09-04T08:40:12.681Z,4.82
2022-09-04T08:43:26.661Z,6.13
2022-09-04T08:46:30.174Z,6.47
2022-09-04T08:49:53.679Z,6.07
2022-09-04T08:53:04.127Z,6.13
2022-09-04T08:55:56.680Z,6.53
2022-09-04T08:58:57.769Z,6.00
2022-09-04T09:02:09.690Z,4.40
2022-09-04T09:05:24.661Z,3.90
2022-09-04T09:08:46.174Z,7.00
2022-09-04T09:11:56.635Z,4.85
2022-09-04T09:15:04.657Z,4.05
2022-09-04T09:18:24.732Z,5.40
2022-09-04T09:21:39.474Z,3.95
2022-09-04T09:24:53.617Z,4.38
2022-09-04T09:27:52.702Z,3.80
2022-09-04T09:31:05.748Z,7.78
2022-09-04T09:34:27.466Z,4.32
2022-09-04T09:37:29.630Z,6.55
2022-09-04T09:40:24.017Z,6.80
2022-09-04T09:43:16.628Z,4.28
2022-09-04T09:46:35.174Z,4.20
2022-09-04T09:49:58.621Z,4.85
2022-09-04T09:53:10.630Z,4.55
2022-09-04T09:55:57.172Z,6.53
2022-09-04T09:59:01.622Z,4.78
2022-09-04T10:02:18.923Z,3.72
2022-09-04T10:05:33.599Z,4.72
2022-09-04T10:08:37.577Z,5.28
2022-09-04T10:11:52.606Z,5.43
2022-09-04T10:14:54.748Z,4.72
2022-09-04T10:17:47.598Z,3.67
2022-09-04T10:20:49.540Z,3.95
2022-09-04T10:24:05.595Z,4.97
2022-09-04T10:27:01.571Z,6.03
2022-09-04T10:30:07.663Z,4.03
2022-09-04T10:33:01.533Z,4.07
2022-09-04T10:35:59.669Z,5.05
2022-09-04T10:39:39.614Z,4.13
2022-09-04T10:42:49.675Z,6.65
2022-09-04T10:45:42.636Z,7.30
2022-09-04T10:49:15.561Z,2.95
2022-09-04T10:52:23.541Z,3.78
2022-09-04T10:55:28.556Z,2.65
2022-09-04T10:58:39.940Z,6.32
2022-09-04T11:01:47.502Z,3.28
2022-09-04T11:05:06.543Z,8.10
2022-09-04T11:08:20.530Z,4.18
2022-09-04T11:11:22.467Z,4.72
2022-09-04T11:15:00.540Z,4.07
2022-09-04T11:18:39.535Z,5.25
2022-09-04T11:22:07.517Z,4.97
2022-09-04T11:25:33.542Z,5.35
2022-09-04T11:28:15.760Z,3.15
2022-09-04T11:31:33.608Z,4.65
2022-09-04T11:34:33.198Z,5.50
2022-09-04T11:37:57.433Z,3.97
2022-09-04T11:40:38.043Z,3.40
2022-09-04T11:43:43.493Z,3.47
2022-09-04T11:46:33.008Z,4.20
2022-09-04T11:49:37.503Z,4.28
2022-09-04T11:53:02.481Z,4.95
2022-09-04T11:56:01.630Z,7.60
2022-09-04T11:58:48.504Z,4.25
2022-09-04T12:01:31.582Z,2.83
2022-09-04T12:04:34.525Z,3.27
2022-09-04T12:07:42.953Z,4.05
2022-09-04T12:10:50.509Z,2.17
2022-09-04T12:14:05.645Z,4.93
2022-09-04T12:17:12.458Z,2.65
2022-09-04T12:20:13.462Z,3.50
2022-09-04T12:22:55.838Z,5.15
2022-09-04T12:26:13.440Z,2.80
2022-09-04T12:29:23.460Z,4.43
2022-09-04T12:32:57.581Z,3.05
2022-09-04T12:36:16.501Z,3.40
2022-09-04T12:39:37.497Z,3.67
2022-09-04T12:42:46.420Z,2.35
2022-09-04T12:45:36.623Z,2.80
2022-09-04T12:48:40.424Z,4.75
2022-09-04T12:51:31.422Z,3.63
2022-09-04T12:54:38.437Z,5.00
2022-09-04T12:57:33.015Z,3.10
2022-09-04T13:00:23.450Z,3.53
2022-09-04T13:03:11.188Z,6.78
2022-09-04T13:06:08.853Z,3.35
2022-09-04T13:09:15.414Z,1.98
2022-09-04T13:12:20.404Z,3.72
2022-09-04T13:15:19.544Z,2.63
2022-09-04T13:18:30.413Z,2.55
2022-09-04T13:21:46.441Z,2.10
2022-09-04T13:24:48.416Z,2.80
2022-09-04T13:28:21.421Z,4.18
2022-09-04T13:31:22.531Z,4.50
2022-09-04T13:34:31.414Z,2.75
2022-09-04T13:38:00.370Z,3.25
2022-09-04T13:41:24.368Z,3.63
2022-09-04T13:44:47.347Z,3.35
2022-09-04T13:47:40.384Z,2.05
2022-09-04T13:50:49.349Z,2.90
2022-09-04T13:53:47.369Z,3.40
2022-09-04T13:56:46.500Z,2.65
2022-09-04T13:59:29.374Z,3.53
2022-09-04T14:02:14.839Z,2.45
2022-09-04T14:05:03.371Z,3.10
2022-09-04T14:07:47.687Z,3.03
2022-09-04T14:13:58.371Z,2.72
2022-09-04T14:16:38.575Z,3.90
2022-09-04T14:19:49.345Z,2.60
2022-09-04T14:23:03.357Z,4.43
2022-09-04T14:26:13.338Z,6.60
2022-09-04T14:29:26.354Z,4.80
2022-09-04T14:32:18.823Z,8.70
2022-09-04T14:35:09.357Z,5.75
2022-09-04T14:38:07.519Z,4.40
2022-09-04T14:41:25.344Z,5.28
2022-09-04T14:44:12.790Z,5.20
2022-09-04T14:47:13.318Z,6.13
2022-09-04T14:50:04.276Z,4.15
2022-09-04T14:52:56.304Z,3.40
2022-09-04T14:55:39.414Z,4.35
2022-09-04T14:58:34.282Z,7.45
2022-09-04T15:01:28.490Z,3.28
2022-09-04T15:04:27.308Z,4.50
2022-09-04T15:07:34.283Z,5.35
2022-09-04T15:10:35.221Z,4.90
2022-09-04T15:28:06.821Z,8.50
2022-09-04T15:31:15.250Z,6.28
2022-09-04T15:33:55.890Z,4.97
2022-09-04T15:36:45.816Z,6.20
2022-09-04T15:39:55.127Z,4.57
2022-09-04T15:42:52.816Z,5.82
2022-09-04T15:45:49.798Z,7.95
2022-09-04T15:48:53.549Z,6.85
2022-09-04T15:51:52.779Z,7.97
2022-09-04T15:54:48.795Z,5.07
2022-09-04T15:57:39.430Z,5.50
2022-09-04T16:00:32.750Z,10.30
2022-09-04T16:03:34.783Z,6.07
2022-09-04T16:06:31.729Z,7.80
2022-09-04T16:09:42.749Z,6.95
2022-09-04T16:12:55.742Z,5.30
2022-09-04T16:15:51.008Z,7.40
2022-09-04T16:18:53.743Z,9.77
2022-09-04T16:22:22.780Z,6.05
2022-09-04T16:25:08.909Z,6.22
2022-09-04T16:28:18.790Z,6.07
2022-09-04T16:31:02.170Z,5.05
2022-09-04T16:33:53.737Z,6.57
2022-09-04T16:36:45.894Z,5.18
2022-09-04T16:39:42.761Z,8.88
2022-09-04T16:43:01.720Z,6.78
2022-09-04T16:46:08.773Z,7.30
2022-09-04T16:49:19.749Z,6.88
2022-09-04T16:52:16.700Z,6.90
2022-09-04T16:55:16.717Z,8.13
2022-09-04T16:58:15.718Z,6.13
2022-09-04T17:01:13.798Z,5.30
2022-09-04T17:04:19.708Z,4.82
2022-09-04T17:10:15.730Z,7.20
2022-09-04T17:13:15.261Z,4.05
2022-09-04T17:16:29.700Z,4.88
2022-09-04T17:19:20.671Z,7.10
2022-09-04T17:28:54.184Z,15.48
2022-09-04T17:28:56.661Z,10.98
2022-09-04T17:29:53.929Z,7.82
2022-09-04T17:35:45.639Z,4.50
2022-09-04T17:40:44.532Z,4.30
2022-09-04T17:40:54.775Z,7.38
2022-09-04T17:42:40.831Z,5.35
2022-09-04T17:45:51.400Z,4.78
2022-09-04T17:48:48.652Z,5.07
2022-09-04T17:51:40.662Z,4.95
2022-09-04T17:54:27.143Z,5.20
2022-09-04T17:57:28.601Z,3.65
2022-09-04T18:00:20.453Z,5.97
2022-09-04T18:03:17.736Z,5.72
2022-09-04T18:06:09.594Z,4.10
2022-09-04T18:09:01.617Z,6.82
2022-09-04T18:12:00.355Z,5.55
2022-09-04T18:15:44.654Z,5.07
2022-09-04T18:18:44.790Z,4.13
2022-09-04T18:22:25.114Z,6.13
2022-09-04T18:25:25.803Z,4.97
2022-09-04T18:28:21.771Z,4.55
2022-09-04T18:37:18.719Z,6.55
2022-09-04T18:37:21.676Z,4.00
2022-09-04T18:38:10.794Z,4.55
2022-09-04T18:42:45.708Z,4.68
2022-09-04T18:50:24.350Z,4.50
2022-09-04T18:50:43.190Z,3.33
2022-09-04T18:51:19.302Z,4.28
2022-09-04T18:54:12.155Z,5.10
2022-09-04T18:57:06.483Z,5.43
2022-09-04T19:00:07.688Z,6.60
2022-09-04T19:02:59.679Z,4.53
2022-09-04T19:05:45.496Z,8.18
2022-09-04T19:08:53.642Z,4.45
2022-09-04T19:11:42.223Z,2.63
2022-09-04T19:14:36.633Z,4.22
2022-09-04T19:17:37.628Z,3.08
2022-09-04T19:20:23.877Z,3.90
2022-09-04T19:23:21.754Z,4.50
2022-09-04T19:26:07.470Z,2.88
2022-09-04T19:29:02.650Z,3.10
2022-09-04T19:32:02.684Z,4.38
2022-09-04T19:34:55.184Z,4.57
2022-09-04T19:40:58.396Z,5.32
2022-09-04T19:46:12.081Z,4.10
2022-09-04T19:46:19.312Z,4.43
2022-09-04T19:48:00.794Z,5.15
2022-09-04T19:53:22.330Z,5.57
2022-09-04T19:54:17.547Z,6.68
2022-09-04T19:57:32.857Z,4.97
2022-09-04T20:00:42.302Z,7.03
2022-09-04T20:03:46.355Z,3.13
2022-09-04T20:06:39.531Z,4.15
2022-09-04T20:09:22.892Z,4.20
2022-09-04T20:12:15.528Z,3.85
2022-09-04T20:15:04.048Z,4.93
2022-09-04T20:18:04.002Z,4.15
2022-09-04T20:20:56.216Z,3.08
2022-09-04T20:24:13.464Z,4.15
2022-09-04T20:27:22.444Z,5.70
2022-09-04T20:30:24.985Z,2.90
2022-09-04T20:33:14.480Z,5.53
2022-09-04T20:36:02.447Z,3.90
2022-09-04T20:39:17.495Z,4.60
2022-09-04T20:42:13.438Z,3.85
2022-09-04T20:50:46.626Z,10.73
2022-09-04T20:53:00.395Z,4.85
2022-09-04T20:53:07.081Z,5.38
2022-09-04T20:55:07.455Z,4.22
2022-09-04T21:02:28.342Z,4.50
2022-09-04T21:03:22.400Z,5.72
2022-09-04T21:05:11.256Z,7.35
2022-09-04T21:07:59.394Z,4.30
2022-09-04T21:10:48.231Z,4.57
2022-09-04T21:13:57.406Z,4.43
2022-09-04T21:16:55.529Z,5.85
2022-09-04T21:20:06.469Z,8.57
2022-09-04T21:22:49.556Z,5.60
2022-09-04T21:25:39.401Z,6.80
2022-09-04T21:28:33.517Z,4.85
2022-09-04T21:31:44.604Z,4.72
2022-09-04T21:34:47.398Z,3.70
2022-09-04T21:37:39.957Z,3.67
2022-09-04T21:40:51.696Z,5.43
2022-09-04T21:43:57.383Z,5.75
2022-09-04T21:49:48.379Z,5.25
2022-09-04T21:52:56.423Z,7.03
2022-09-04T21:57:20.820Z,4.03
2022-09-04T22:02:35.110Z,5.85
2022-09-04T22:03:08.615Z,4.40
2022-09-04T22:08:22.230Z,5.68
2022-09-04T22:13:32.635Z,4.32
2022-09-04T22:13:47.829Z,4.30
2022-09-04T22:17:06.434Z,5.95
2022-09-04T22:20:13.018Z,5.32
2022-09-04T22:23:24.422Z,3.45
2022-09-04T22:26:36.443Z,3.22
2022-09-04T22:29:45.359Z,3.13
2022-09-04T22:32:38.354Z,5.43
2022-09-04T22:35:25.287Z,3.47
2022-09-04T22:38:43.331Z,5.00
2022-09-04T22:41:48.284Z,3.63
2022-09-04T22:45:10.158Z,4.60
2022-09-04T22:47:57.336Z,3.45
2022-09-04T22:51:03.718Z,3.25
2022-09-04T22:54:12.333Z,4.68
2022-09-04T22:57:08.409Z,5.72
2022-09-04T23:00:01.448Z,4.32
2022-09-04T23:03:22.550Z,3.63
2022-09-04T23:10:30.671Z,6.75
2022-09-04T23:13:50.841Z,4.35
2022-09-04T23:14:02.316Z,4.25
2022-09-04T23:16:46.301Z,3.35
2022-09-04T23:26:34.951Z,4.40
2022-09-04T23:26:41.903Z,6.13
2022-09-04T23:26:58.723Z,3.97
2022-09-04T23:30:13.954Z,3.30
2022-09-04T23:33:00.280Z,5.13
2022-09-04T23:36:04.334Z,5.47
2022-09-04T23:38:57.123Z,3.53
2022-09-04T23:41:57.283Z,3.80
2022-09-04T23:45:00.547Z,2.90
2022-09-04T23:48:11.236Z,4.70
2022-09-04T23:51:06.361Z,4.45
2022-09-04T23:54:24.991Z,4.45
2022-09-04T23:57:26.618Z,4.53
